sensor_id;sensor_type;location;lat;lon;timestamp;temperature;humidity
25170;DHT22;13129;48.012;10.352;2023-06-14T03:31:29;6.90;99.90
25170;DHT22;13129;48.012;10.352;2023-06-14T03:33:58;6.90;99.90
25170;DHT22;13129;48.012;10.352;2023-06-14T03:36:24;7.00;99.90
25170;DHT22;13129;48.012;10.352;2023-06-14T03:38:50;7.00;99.90
25170;DHT22;13129;48.012;10.352;2023-06-14T03:41:17;7.00;99.90
25170;DHT22;13129;48.012;10.352;2023-06-14T03:43:43;7.00;99.90
25170;DHT22;13129;48.012;10.352;2023-06-14T03:46:09;7.10;99.90
25170;DHT22;13129;48.012;10.352;2023-06-14T03:48:35;7.10;99.90
25170;DHT22;13129;48.012;10.352;2023-06-14T03:51:00;7.10;99.90
25170;DHT22;13129;48.012;10.352;2023-06-14T03:53:27;7.10;99.90
25170;DHT22;13129;48.012;10.352;2023-06-14T03:55:54;7.10;99.90
25170;DHT22;13129;48.012;10.352;2023-06-14T03:58:20;7.20;99.90
25170;DHT22;13129;48.012;10.352;2023-06-14T04:00:46;7.20;99.90
25170;DHT22;13129;48.012;10.352;2023-06-14T04:03:12;7.30;99.90
25170;DHT22;13129;48.012;10.352;2023-06-14T04:05:41;7.30;99.90
25170;DHT22;13129;48.012;10.352;2023-06-14T04:08:09;7.30;99.90
25170;DHT22;13129;48.012;10.352;2023-06-14T04:10:35;7.40;99.90
25170;DHT22;13129;48.012;10.352;2023-06-14T04:13:01;7.40;99.90
25170;DHT22;13129;48.012;10.352;2023-06-14T04:15:27;7.50;99.90
25170;DHT22;13129;48.012;10.352;2023-06-14T04:17:55;7.50;99.90
25170;DHT22;13129;48.012;10.352;2023-06-14T04:20:22;7.60;99.90
25170;DHT22;13129;48.012;10.352;2023-06-14T04:22:49;7.70;99.90
25170;DHT22;13129;48.012;10.352;2023-06-14T04:25:15;7.80;99.90
25170;DHT22;13129;48.012;10.352;2023-06-14T04:27:41;7.80;99.90
25170;DHT22;13129;48.012;10.352;2023-06-14T04:30:07;7.90;99.90
25170;DHT22;13129;48.012;10.352;2023-06-14T04:32:33;8.10;99.90
25170;DHT22;13129;48.012;10.352;2023-06-14T04:35:00;8.30;99.90
25170;DHT22;13129;48.012;10.352;2023-06-14T04:37:28;8.40;99.90
25170;DHT22;13129;48.012;10.352;2023-06-14T04:39:55;8.60;99.90
25170;DHT22;13129;48.012;10.352;2023-06-14T04:42:22;8.80;99.90
25170;DHT22;13129;48.012;10.352;2023-06-14T04:44:50;8.90;99.90
25170;DHT22;13129;48.012;10.352;2023-06-14T04:47:17;9.10;99.90
25170;DHT22;13129;48.012;10.352;2023-06-14T04:49:42;9.30;99.90
25170;DHT22;13129;48.012;10.352;2023-06-14T04:52:08;9.50;99.90
25170;DHT22;13129;48.012;10.352;2023-06-14T04:54:36;9.70;99.90
25170;DHT22;13129;48.012;10.352;2023-06-14T04:57:06;10.00;99.90
25170;DHT22;13129;48.012;10.352;2023-06-14T04:59:32;10.20;99.90
25170;DHT22;13129;48.012;10.352;2023-06-14T05:02:01;10.40;99.90
25170;DHT22;13129;48.012;10.352;2023-06-14T05:04:27;10.60;99.90
25170;DHT22;13129;48.012;10.352;2023-06-14T05:06:53;10.90;99.90
25170;DHT22;13129;48.012;10.352;2023-06-14T05:09:22;11.10;99.90
25170;DHT22;13129;48.012;10.352;2023-06-14T05:11:48;11.30;99.90
25170;DHT22;13129;48.012;10.352;2023-06-14T05:14:14;11.50;99.90
25170;DHT22;13129;48.012;10.352;2023-06-14T05:16:40;11.80;99.90
25170;DHT22;13129;48.012;10.352;2023-06-14T05:19:06;12.10;99.90
25170;DHT22;13129;48.012;10.352;2023-06-14T05:21:32;12.40;99.90
25170;DHT22;13129;48.012;10.352;2023-06-14T05:24:00;12.60;99.90
25170;DHT22;13129;48.012;10.352;2023-06-14T05:26:26;13.00;99.90
25170;DHT22;13129;48.012;10.352;2023-06-14T05:28:58;13.60;99.90
25170;DHT22;13129;48.012;10.352;2023-06-14T05:31:25;14.70;99.60
25170;DHT22;13129;48.012;10.352;2023-06-14T05:33:51;16.30;97.00
25170;DHT22;13129;48.012;10.352;2023-06-14T05:36:18;17.90;93.50
25170;DHT22;13129;48.012;10.352;2023-06-14T05:38:44;19.60;89.90
25170;DHT22;13129;48.012;10.352;2023-06-14T05:41:10;20.80;82.50
25170;DHT22;13129;48.012;10.352;2023-06-14T05:43:36;21.90;76.00
25170;DHT22;13129;48.012;10.352;2023-06-14T05:46:02;22.90;70.30
25170;DHT22;13129;48.012;10.352;2023-06-14T05:48:28;23.50;65.90
25170;DHT22;13129;48.012;10.352;2023-06-14T05:50:54;24.20;62.40
25170;DHT22;13129;48.012;10.352;2023-06-14T05:53:19;24.80;59.90
25170;DHT22;13129;48.012;10.352;2023-06-14T05:55:45;25.30;58.30
25170;DHT22;13129;48.012;10.352;2023-06-14T05:58:11;25.90;56.90
25170;DHT22;13129;48.012;10.352;2023-06-14T06:00:39;26.30;55.40
25170;DHT22;13129;48.012;10.352;2023-06-14T06:03:04;26.90;54.20
25170;DHT22;13129;48.012;10.352;2023-06-14T06:05:33;27.20;53.30
25170;DHT22;13129;48.012;10.352;2023-06-14T06:07:59;27.80;52.50
25170;DHT22;13129;48.012;10.352;2023-06-14T06:10:26;28.30;51.20
25170;DHT22;13129;48.012;10.352;2023-06-14T06:12:51;28.80;50.40
25170;DHT22;13129;48.012;10.352;2023-06-14T06:15:18;29.10;49.60
25170;DHT22;13129;48.012;10.352;2023-06-14T06:17:44;29.50;48.80
25170;DHT22;13129;48.012;10.352;2023-06-14T06:20:10;30.00;48.80
25170;DHT22;13129;48.012;10.352;2023-06-14T06:22:37;30.70;47.20
25170;DHT22;13129;48.012;10.352;2023-06-14T06:25:04;31.20;46.30
25170;DHT22;13129;48.012;10.352;2023-06-14T06:27:30;31.40;45.40
25170;DHT22;13129;48.012;10.352;2023-06-14T06:29:55;31.40;44.50
25170;DHT22;13129;48.012;10.352;2023-06-14T06:32:21;31.60;44.80
25170;DHT22;13129;48.012;10.352;2023-06-14T06:34:47;32.00;43.10
25170;DHT22;13129;48.012;10.352;2023-06-14T06:37:13;32.40;42.50
25170;DHT22;13129;48.012;10.352;2023-06-14T06:39:39;32.70;43.30
25170;DHT22;13129;48.012;10.352;2023-06-14T06:42:05;33.10;42.80
25170;DHT22;13129;48.012;10.352;2023-06-14T06:44:32;33.50;42.30
25170;DHT22;13129;48.012;10.352;2023-06-14T06:46:58;33.80;41.40
25170;DHT22;13129;48.012;10.352;2023-06-14T06:49:23;33.90;40.90
25170;DHT22;13129;48.012;10.352;2023-06-14T06:52:05;34.50;40.10
25170;DHT22;13129;48.012;10.352;2023-06-14T06:54:32;34.90;38.30
25170;DHT22;13129;48.012;10.352;2023-06-14T06:56:58;34.80;38.10
25170;DHT22;13129;48.012;10.352;2023-06-14T06:59:24;34.90;38.10
25170;DHT22;13129;48.012;10.352;2023-06-14T07:01:49;35.40;38.20
25170;DHT22;13129;48.012;10.352;2023-06-14T07:04:15;34.90;36.50
25170;DHT22;13129;48.012;10.352;2023-06-14T07:06:42;34.80;36.90
25170;DHT22;13129;48.012;10.352;2023-06-14T07:09:08;34.50;36.50
25170;DHT22;13129;48.012;10.352;2023-06-14T07:11:40;34.40;36.70
25170;DHT22;13129;48.012;10.352;2023-06-14T07:14:06;34.60;36.20
25170;DHT22;13129;48.012;10.352;2023-06-14T07:16:32;34.50;36.60
25170;DHT22;13129;48.012;10.352;2023-06-14T07:18:58;34.90;36.90
25170;DHT22;13129;48.012;10.352;2023-06-14T07:21:24;34.70;36.10
25170;DHT22;13129;48.012;10.352;2023-06-14T07:23:52;34.90;36.40
25170;DHT22;13129;48.012;10.352;2023-06-14T07:26:18;35.30;36.40
25170;DHT22;13129;48.012;10.352;2023-06-14T07:28:44;35.50;36.60
25170;DHT22;13129;48.012;10.352;2023-06-14T07:31:12;35.70;36.70
25170;DHT22;13129;48.012;10.352;2023-06-14T07:33:38;35.70;37.30
25170;DHT22;13129;48.012;10.352;2023-06-14T07:36:04;36.20;37.30
25170;DHT22;13129;48.012;10.352;2023-06-14T07:38:29;36.70;36.40
25170;DHT22;13129;48.012;10.352;2023-06-14T07:40:55;36.60;36.10
25170;DHT22;13129;48.012;10.352;2023-06-14T07:43:21;36.10;36.10
25170;DHT22;13129;48.012;10.352;2023-06-14T07:45:46;36.30;36.70
25170;DHT22;13129;48.012;10.352;2023-06-14T07:48:12;36.20;36.70
25170;DHT22;13129;48.012;10.352;2023-06-14T07:50:38;36.30;37.10
25170;DHT22;13129;48.012;10.352;2023-06-14T07:53:03;36.70;37.00
25170;DHT22;13129;48.012;10.352;2023-06-14T07:55:29;37.30;35.60
25170;DHT22;13129;48.012;10.352;2023-06-14T07:57:58;36.70;35.40
25170;DHT22;13129;48.012;10.352;2023-06-14T08:00:24;36.90;35.50
25170;DHT22;13129;48.012;10.352;2023-06-14T08:02:49;37.30;35.40
25170;DHT22;13129;48.012;10.352;2023-06-14T08:05:17;37.40;34.60
25170;DHT22;13129;48.012;10.352;2023-06-14T08:07:43;37.50;34.70
25170;DHT22;13129;48.012;10.352;2023-06-14T08:10:09;37.40;33.40
25170;DHT22;13129;48.012;10.352;2023-06-14T08:12:34;37.50;33.30
25170;DHT22;13129;48.012;10.352;2023-06-14T08:15:00;37.30;33.30
25170;DHT22;13129;48.012;10.352;2023-06-14T08:17:26;37.10;33.10
25170;DHT22;13129;48.012;10.352;2023-06-14T08:19:52;37.20;33.10
25170;DHT22;13129;48.012;10.352;2023-06-14T08:22:20;37.30;33.40
25170;DHT22;13129;48.012;10.352;2023-06-14T08:24:47;37.60;32.20
25170;DHT22;13129;48.012;10.352;2023-06-14T08:27:13;37.60;31.90
25170;DHT22;13129;48.012;10.352;2023-06-14T08:29:39;37.10;32.40
25170;DHT22;13129;48.012;10.352;2023-06-14T08:32:06;37.50;32.80
25170;DHT22;13129;48.012;10.352;2023-06-14T08:34:32;38.00;31.80
25170;DHT22;13129;48.012;10.352;2023-06-14T08:36:57;38.20;31.00
25170;DHT22;13129;48.012;10.352;2023-06-14T08:39:23;38.30;31.30
25170;DHT22;13129;48.012;10.352;2023-06-14T08:41:50;38.30;31.10
25170;DHT22;13129;48.012;10.352;2023-06-14T08:44:17;38.20;31.80
25170;DHT22;13129;48.012;10.352;2023-06-14T08:46:43;38.20;31.50
25170;DHT22;13129;48.012;10.352;2023-06-14T08:49:12;38.40;31.20
25170;DHT22;13129;48.012;10.352;2023-06-14T08:51:38;37.90;31.30
25170;DHT22;13129;48.012;10.352;2023-06-14T08:54:06;38.10;30.70
25170;DHT22;13129;48.012;10.352;2023-06-14T08:56:32;37.90;30.50
25170;DHT22;13129;48.012;10.352;2023-06-14T08:59:00;38.10;30.20
25170;DHT22;13129;48.012;10.352;2023-06-14T09:01:33;38.20;30.30
25170;DHT22;13129;48.012;10.352;2023-06-14T09:04:00;37.90;30.00
25170;DHT22;13129;48.012;10.352;2023-06-14T09:06:27;37.70;29.60
25170;DHT22;13129;48.012;10.352;2023-06-14T09:08:55;37.50;29.30
25170;DHT22;13129;48.012;10.352;2023-06-14T09:11:22;36.70;29.50
25170;DHT22;13129;48.012;10.352;2023-06-14T09:13:49;37.20;29.40
25170;DHT22;13129;48.012;10.352;2023-06-14T09:16:15;37.40;29.40
25170;DHT22;13129;48.012;10.352;2023-06-14T09:18:45;37.60;29.30
25170;DHT22;13129;48.012;10.352;2023-06-14T09:21:13;37.40;29.50
25170;DHT22;13129;48.012;10.352;2023-06-14T09:23:44;37.50;30.00
25170;DHT22;13129;48.012;10.352;2023-06-14T09:26:11;37.80;30.00
25170;DHT22;13129;48.012;10.352;2023-06-14T09:28:42;38.00;29.10
25170;DHT22;13129;48.012;10.352;2023-06-14T09:31:08;37.60;29.00
25170;DHT22;13129;48.012;10.352;2023-06-14T09:33:35;37.00;28.90
25170;DHT22;13129;48.012;10.352;2023-06-14T09:36:01;36.30;29.60
25170;DHT22;13129;48.012;10.352;2023-06-14T09:38:27;36.40;30.10
25170;DHT22;13129;48.012;10.352;2023-06-14T09:40:52;36.90;30.80
25170;DHT22;13129;48.012;10.352;2023-06-14T09:43:19;37.20;30.90
25170;DHT22;13129;48.012;10.352;2023-06-14T09:45:48;37.40;30.40
25170;DHT22;13129;48.012;10.352;2023-06-14T09:48:14;37.80;29.50
25170;DHT22;13129;48.012;10.352;2023-06-14T09:50:45;37.60;29.30
25170;DHT22;13129;48.012;10.352;2023-06-14T09:53:12;37.60;29.10
25170;DHT22;13129;48.012;10.352;2023-06-14T09:55:41;37.50;29.90
25170;DHT22;13129;48.012;10.352;2023-06-14T09:58:08;38.00;30.30
25170;DHT22;13129;48.012;10.352;2023-06-14T10:00:35;38.30;30.20
25170;DHT22;13129;48.012;10.352;2023-06-14T10:05:36;38.40;30.60
25170;DHT22;13129;48.012;10.352;2023-06-14T10:08:08;38.60;30.50
25170;DHT22;13129;48.012;10.352;2023-06-14T10:10:34;38.20;30.80
25170;DHT22;13129;48.012;10.352;2023-06-14T10:13:00;37.40;31.60
25170;DHT22;13129;48.012;10.352;2023-06-14T10:16:00;36.80;32.00
25170;DHT22;13129;48.012;10.352;2023-06-14T10:18:59;35.60;32.40
25170;DHT22;13129;48.012;10.352;2023-06-14T10:21:54;34.10;34.50
25170;DHT22;13129;48.012;10.352;2023-06-14T10:24:44;32.80;33.40
25170;DHT22;13129;48.012;10.352;2023-06-14T10:27:10;31.60;34.30
25170;DHT22;13129;48.012;10.352;2023-06-14T10:32:20;30.20;36.90
25170;DHT22;13129;48.012;10.352;2023-06-14T10:34:49;29.70;37.60
25170;DHT22;13129;48.012;10.352;2023-06-14T10:37:18;29.30;37.70
25170;DHT22;13129;48.012;10.352;2023-06-14T10:39:45;29.20;38.40
25170;DHT22;13129;48.012;10.352;2023-06-14T10:42:15;29.10;39.10
25170;DHT22;13129;48.012;10.352;2023-06-14T10:44:46;29.20;39.80
25170;DHT22;13129;48.012;10.352;2023-06-14T10:47:23;29.20;39.80
25170;DHT22;13129;48.012;10.352;2023-06-14T10:49:52;29.30;39.60
25170;DHT22;13129;48.012;10.352;2023-06-14T10:52:21;29.40;39.40
25170;DHT22;13129;48.012;10.352;2023-06-14T10:55:09;29.20;38.30
25170;DHT22;13129;48.012;10.352;2023-06-14T10:57:47;29.00;39.20
25170;DHT22;13129;48.012;10.352;2023-06-14T11:00:20;28.80;40.00
25170;DHT22;13129;48.012;10.352;2023-06-14T11:11:00;28.20;39.30
25170;DHT22;13129;48.012;10.352;2023-06-14T11:13:28;28.40;40.30
25170;DHT22;13129;48.012;10.352;2023-06-14T11:15:54;28.50;40.60
25170;DHT22;13129;48.012;10.352;2023-06-14T11:18:21;28.60;40.60
25170;DHT22;13129;48.012;10.352;2023-06-14T11:20:50;28.70;41.20
25170;DHT22;13129;48.012;10.352;2023-06-14T11:23:16;28.90;41.40
25170;DHT22;13129;48.012;10.352;2023-06-14T11:25:42;28.90;41.30
25170;DHT22;13129;48.012;10.352;2023-06-14T11:28:07;28.90;40.90
25170;DHT22;13129;48.012;10.352;2023-06-14T11:30:33;28.90;40.70
25170;DHT22;13129;48.012;10.352;2023-06-14T11:32:59;29.00;41.00
25170;DHT22;13129;48.012;10.352;2023-06-14T11:35:26;28.70;40.70
25170;DHT22;13129;48.012;10.352;2023-06-14T11:37:55;28.80;40.90
25170;DHT22;13129;48.012;10.352;2023-06-14T11:40:24;28.20;39.00
25170;DHT22;13129;48.012;10.352;2023-06-14T11:42:54;27.70;39.10
25170;DHT22;13129;48.012;10.352;2023-06-14T11:45:23;27.50;39.30
25170;DHT22;13129;48.012;10.352;2023-06-14T11:47:48;27.50;40.00
25170;DHT22;13129;48.012;10.352;2023-06-14T11:50:14;27.70;40.30
25170;DHT22;13129;48.012;10.352;2023-06-14T11:52:39;27.50;39.60
25170;DHT22;13129;48.012;10.352;2023-06-14T11:55:07;27.30;39.50
25170;DHT22;13129;48.012;10.352;2023-06-14T11:57:36;27.20;39.50
25170;DHT22;13129;48.012;10.352;2023-06-14T12:00:07;27.50;41.10
25170;DHT22;13129;48.012;10.352;2023-06-14T12:02:40;27.60;42.10
25170;DHT22;13129;48.012;10.352;2023-06-14T12:05:07;27.60;42.70
25170;DHT22;13129;48.012;10.352;2023-06-14T12:07:38;27.60;43.50
25170;DHT22;13129;48.012;10.352;2023-06-14T12:10:08;27.50;42.30
25170;DHT22;13129;48.012;10.352;2023-06-14T12:12:39;27.10;40.50
25170;DHT22;13129;48.012;10.352;2023-06-14T12:15:06;26.70;40.30
25170;DHT22;13129;48.012;10.352;2023-06-14T12:17:36;26.50;40.40
25170;DHT22;13129;48.012;10.352;2023-06-14T12:20:11;26.30;41.90
25170;DHT22;13129;48.012;10.352;2023-06-14T12:22:52;26.50;42.80
25170;DHT22;13129;48.012;10.352;2023-06-14T12:25:32;26.60;42.70
25170;DHT22;13129;48.012;10.352;2023-06-14T12:28:03;27.00;43.90
25170;DHT22;13129;48.012;10.352;2023-06-14T12:30:29;27.20;44.10
25170;DHT22;13129;48.012;10.352;2023-06-14T12:32:54;27.00;43.10
25170;DHT22;13129;48.012;10.352;2023-06-14T12:35:21;26.90;41.90
25170;DHT22;13129;48.012;10.352;2023-06-14T12:37:46;26.60;41.70
25170;DHT22;13129;48.012;10.352;2023-06-14T12:40:13;26.40;41.80
25170;DHT22;13129;48.012;10.352;2023-06-14T12:42:38;26.10;41.70
25170;DHT22;13129;48.012;10.352;2023-06-14T12:45:05;25.90;41.50
25170;DHT22;13129;48.012;10.352;2023-06-14T12:47:30;25.70;41.90
25170;DHT22;13129;48.012;10.352;2023-06-14T12:49:56;25.80;43.20
25170;DHT22;13129;48.012;10.352;2023-06-14T12:52:21;25.70;44.60
25170;DHT22;13129;48.012;10.352;2023-06-14T12:54:47;25.80;43.50
25170;DHT22;13129;48.012;10.352;2023-06-14T12:57:13;26.00;43.70
25170;DHT22;13129;48.012;10.352;2023-06-14T12:59:38;26.20;43.70
25170;DHT22;13129;48.012;10.352;2023-06-14T13:02:15;26.30;43.70
25170;DHT22;13129;48.012;10.352;2023-06-14T13:04:42;26.10;42.40
25170;DHT22;13129;48.012;10.352;2023-06-14T13:07:07;25.90;41.80
25170;DHT22;13129;48.012;10.352;2023-06-14T13:09:33;26.00;43.10
25170;DHT22;13129;48.012;10.352;2023-06-14T13:11:59;26.00;43.00
25170;DHT22;13129;48.012;10.352;2023-06-14T13:14:24;26.20;43.50
25170;DHT22;13129;48.012;10.352;2023-06-14T13:16:50;25.70;44.10
25170;DHT22;13129;48.012;10.352;2023-06-14T13:19:16;25.10;44.10
25170;DHT22;13129;48.012;10.352;2023-06-14T13:21:42;24.80;45.60
25170;DHT22;13129;48.012;10.352;2023-06-14T13:24:07;24.30;45.80
25170;DHT22;13129;48.012;10.352;2023-06-14T13:26:34;24.20;46.50
25170;DHT22;13129;48.012;10.352;2023-06-14T13:28:59;24.40;46.60
25170;DHT22;13129;48.012;10.352;2023-06-14T13:31:25;24.70;46.10
25170;DHT22;13129;48.012;10.352;2023-06-14T13:33:51;24.80;43.70
25170;DHT22;13129;48.012;10.352;2023-06-14T13:36:17;25.00;43.80
25170;DHT22;13129;48.012;10.352;2023-06-14T13:38:42;24.90;42.40
25170;DHT22;13129;48.012;10.352;2023-06-14T13:41:08;24.70;42.50
25170;DHT22;13129;48.012;10.352;2023-06-14T13:43:33;25.00;43.20
25170;DHT22;13129;48.012;10.352;2023-06-14T13:45:59;25.10;44.20
25170;DHT22;13129;48.012;10.352;2023-06-14T13:48:26;25.20;45.40
25170;DHT22;13129;48.012;10.352;2023-06-14T13:50:52;25.40;45.20
25170;DHT22;13129;48.012;10.352;2023-06-14T13:53:17;25.30;43.40
25170;DHT22;13129;48.012;10.352;2023-06-14T13:55:43;25.40;43.90
25170;DHT22;13129;48.012;10.352;2023-06-14T13:58:09;25.30;43.60
25170;DHT22;13129;48.012;10.352;2023-06-14T14:00:34;25.10;43.60
25170;DHT22;13129;48.012;10.352;2023-06-14T14:03:02;24.60;43.80
25170;DHT22;13129;48.012;10.352;2023-06-14T14:05:28;24.20;45.30
25170;DHT22;13129;48.012;10.352;2023-06-14T14:07:56;24.10;45.10
25170;DHT22;13129;48.012;10.352;2023-06-14T14:10:23;24.20;44.60
25170;DHT22;13129;48.012;10.352;2023-06-14T14:12:50;24.30;44.60
25170;DHT22;13129;48.012;10.352;2023-06-14T14:15:16;24.50;45.00
25170;DHT22;13129;48.012;10.352;2023-06-14T14:17:42;24.80;45.90
25170;DHT22;13129;48.012;10.352;2023-06-14T14:20:08;24.90;45.70
25170;DHT22;13129;48.012;10.352;2023-06-14T14:22:34;24.80;45.30
25170;DHT22;13129;48.012;10.352;2023-06-14T14:25:00;25.00;45.00
25170;DHT22;13129;48.012;10.352;2023-06-14T14:27:25;25.00;45.70
25170;DHT22;13129;48.012;10.352;2023-06-14T14:29:51;25.00;45.30
25170;DHT22;13129;48.012;10.352;2023-06-14T14:32:17;24.90;45.00
25170;DHT22;13129;48.012;10.352;2023-06-14T14:34:42;24.90;45.10
25170;DHT22;13129;48.012;10.352;2023-06-14T14:37:08;24.80;44.60
25170;DHT22;13129;48.012;10.352;2023-06-14T14:39:34;24.70;45.00
25170;DHT22;13129;48.012;10.352;2023-06-14T14:42:00;24.80;45.40
25170;DHT22;13129;48.012;10.352;2023-06-14T14:44:25;24.80;45.60
25170;DHT22;13129;48.012;10.352;2023-06-14T14:46:51;24.60;45.00
25170;DHT22;13129;48.012;10.352;2023-06-14T14:49:16;24.50;45.00
25170;DHT22;13129;48.012;10.352;2023-06-14T14:51:42;24.40;45.30
25170;DHT22;13129;48.012;10.352;2023-06-14T14:54:08;24.30;45.00
25170;DHT22;13129;48.012;10.352;2023-06-14T14:56:34;24.20;45.30
25170;DHT22;13129;48.012;10.352;2023-06-14T14:59:01;24.10;45.20
25170;DHT22;13129;48.012;10.352;2023-06-14T15:01:28;24.20;45.70
25170;DHT22;13129;48.012;10.352;2023-06-14T15:03:53;24.30;46.10
25170;DHT22;13129;48.012;10.352;2023-06-14T15:06:19;23.90;45.00
25170;DHT22;13129;48.012;10.352;2023-06-14T15:08:44;23.50;46.20
25170;DHT22;13129;48.012;10.352;2023-06-14T15:11:10;23.30;46.60
25170;DHT22;13129;48.012;10.352;2023-06-14T15:13:36;23.30;46.50
25170;DHT22;13129;48.012;10.352;2023-06-14T15:16:02;23.30;46.30
25170;DHT22;13129;48.012;10.352;2023-06-14T15:18:27;23.40;45.80
25170;DHT22;13129;48.012;10.352;2023-06-14T15:20:53;23.40;46.50
25170;DHT22;13129;48.012;10.352;2023-06-14T15:23:19;23.40;46.60
25170;DHT22;13129;48.012;10.352;2023-06-14T15:25:46;23.50;47.00
25170;DHT22;13129;48.012;10.352;2023-06-14T15:28:14;23.40;46.40
25170;DHT22;13129;48.012;10.352;2023-06-14T15:30:40;23.40;45.80
25170;DHT22;13129;48.012;10.352;2023-06-14T15:33:06;23.40;46.00
25170;DHT22;13129;48.012;10.352;2023-06-14T15:35:32;23.40;46.60
25170;DHT22;13129;48.012;10.352;2023-06-14T15:37:57;23.40;46.80
25170;DHT22;13129;48.012;10.352;2023-06-14T15:40:23;23.30;47.20
25170;DHT22;13129;48.012;10.352;2023-06-14T15:42:49;23.40;47.80
25170;DHT22;13129;48.012;10.352;2023-06-14T15:45:14;23.40;48.10
25170;DHT22;13129;48.012;10.352;2023-06-14T15:47:41;23.30;47.40
25170;DHT22;13129;48.012;10.352;2023-06-14T15:50:07;23.20;47.30
